createdAt,value
2022-11-10T00:00:19.673Z,52.17
2022-11-10T00:02:47.993Z,60.77
2022-11-10T00:05:17.289Z,54.03
2022-11-10T00:07:45.533Z,53.80
2022-11-10T00:10:15.523Z,55.23
2022-11-10T00:12:43.708Z,55.83
2022-11-10T00:15:30.174Z,58.37
2022-11-10T00:17:58.368Z,54.53
2022-11-10T00:20:26.568Z,55.60
2022-11-10T00:22:56.411Z,60.23
2022-11-10T00:25:26.948Z,53.87
2022-11-10T00:27:55.154Z,58.20
2022-11-10T00:30:23.401Z,55.53
2022-11-10T00:32:51.582Z,56.27
2022-11-10T00:35:19.978Z,61.83
2022-11-10T00:37:54.358Z,58.70
2022-11-10T00:40:22.971Z,60.87
2022-11-10T00:42:52.617Z,58.77
2022-11-10T00:45:20.793Z,50.40
2022-11-10T00:47:49.058Z,55.17
2022-11-10T00:50:17.833Z,56.00
2022-11-10T00:52:46.054Z,54.53
2022-11-10T00:55:14.233Z,51.83
2022-11-10T00:57:42.453Z,48.87
2022-11-10T01:00:12.982Z,55.07
2022-11-10T01:02:41.564Z,55.37
2022-11-10T01:05:28.151Z,54.80
2022-11-10T01:07:56.369Z,51.50
2022-11-10T01:10:24.608Z,53.50
2022-11-10T01:12:52.815Z,51.90
2022-11-10T01:15:27.285Z,59.30
2022-11-10T01:17:57.092Z,59.07
2022-11-10T01:20:26.097Z,54.67
2022-11-10T01:22:54.351Z,60.17
2022-11-10T01:25:22.600Z,55.83
2022-11-10T01:27:51.749Z,58.23
2022-11-10T01:30:20.573Z,57.13
2022-11-10T01:32:50.204Z,55.70
2022-11-10T01:35:18.569Z,60.53
2022-11-10T01:37:46.786Z,57.57
2022-11-10T01:40:15.633Z,55.70
2022-11-10T01:42:52.125Z,60.43
2022-11-10T01:45:49.783Z,60.33
2022-11-10T01:48:26.457Z,56.13
2022-11-10T01:50:55.631Z,59.00
2022-11-10T01:53:28.461Z,61.90
2022-11-10T01:55:58.132Z,64.57
2022-11-10T01:58:40.297Z,61.53
2022-11-10T02:01:09.377Z,58.93
2022-11-10T02:03:44.168Z,61.07
2022-11-10T02:06:13.656Z,56.17
2022-11-10T02:08:43.384Z,54.60
2022-11-10T02:11:12.132Z,63.57
2022-11-10T02:13:40.487Z,62.27
2022-11-10T02:16:09.087Z,62.87
2022-11-10T02:18:38.837Z,65.70
2022-11-10T02:21:09.689Z,59.83
2022-11-10T02:23:58.685Z,57.63
2022-11-10T02:26:30.796Z,67.80
2022-11-10T02:28:59.052Z,60.90
2022-11-10T02:31:27.328Z,65.03
2022-11-10T02:33:55.546Z,62.50
2022-11-10T02:36:25.148Z,63.73
2022-11-10T02:38:53.385Z,57.43
2022-11-10T02:41:22.687Z,61.23
2022-11-10T02:43:51.171Z,60.87
2022-11-10T02:46:19.405Z,56.37
2022-11-10T02:48:47.993Z,56.37
2022-11-10T02:51:16.250Z,58.57
2022-11-10T02:53:45.958Z,57.53
2022-11-10T02:56:14.201Z,55.83
2022-11-10T02:58:42.430Z,54.47
2022-11-10T03:01:10.785Z,58.03
2022-11-10T03:03:39.186Z,55.57
2022-11-10T03:06:46.296Z,55.93
2022-11-10T03:09:16.287Z,52.47
2022-11-10T03:11:45.437Z,54.53
2022-11-10T03:14:13.656Z,57.73
2022-11-10T03:16:41.872Z,51.73
2022-11-10T03:19:10.068Z,55.93
2022-11-10T03:21:38.278Z,49.33
2022-11-10T03:24:07.038Z,54.37
2022-11-10T03:26:42.622Z,55.30
2022-11-10T03:29:10.886Z,55.23
2022-11-10T03:31:39.117Z,52.40
2022-11-10T03:34:07.533Z,49.23
2022-11-10T03:36:35.803Z,54.20
2022-11-10T03:39:04.017Z,53.80
2022-11-10T03:41:32.351Z,55.83
2022-11-10T03:44:01.953Z,56.40
2022-11-10T03:46:30.227Z,56.80
2022-11-10T03:48:58.453Z,57.10
2022-11-10T03:51:26.676Z,55.20
2022-11-10T03:53:54.907Z,55.30
2022-11-10T03:56:23.150Z,51.43
2022-11-10T03:58:51.361Z,54.20
2022-11-10T04:01:20.987Z,57.07
2022-11-10T04:03:51.665Z,53.47
2022-11-10T04:06:37.709Z,53.77
2022-11-10T04:09:06.964Z,53.67
2022-11-10T04:12:07.157Z,50.13
2022-11-10T04:14:52.536Z,54.37
2022-11-10T04:17:22.186Z,55.90
2022-11-10T04:19:50.377Z,53.30
2022-11-10T04:22:38.588Z,53.20
2022-11-10T04:25:07.683Z,51.10
2022-11-10T04:27:41.135Z,49.67
2022-11-10T04:30:10.405Z,53.63
2022-11-10T04:32:42.679Z,45.17
2022-11-10T04:35:13.819Z,47.53
2022-11-10T04:37:54.965Z,45.63
2022-11-10T04:40:28.473Z,46.50
2022-11-10T04:43:14.124Z,41.10
2022-11-10T04:45:49.697Z,42.00
2022-11-10T04:48:19.341Z,43.63
2022-11-10T04:50:47.645Z,42.53
2022-11-10T04:53:16.694Z,43.33
2022-11-10T04:56:13.307Z,39.23
2022-11-10T04:58:41.596Z,38.77
2022-11-10T05:01:13.019Z,37.80
2022-11-10T05:03:43.187Z,39.03
2022-11-10T05:06:12.083Z,36.97
2022-11-10T05:08:41.916Z,40.60
2022-11-10T05:11:10.962Z,39.30
2022-11-10T05:13:39.378Z,42.40
2022-11-10T05:16:08.733Z,41.87
2022-11-10T05:18:37.060Z,44.87
2022-11-10T05:21:17.050Z,39.43
2022-11-10T05:23:55.389Z,44.27
2022-11-10T05:26:33.654Z,39.90
2022-11-10T05:29:14.752Z,38.20
2022-11-10T05:31:50.487Z,38.90
2022-11-10T05:34:22.126Z,39.80
2022-11-10T05:37:12.024Z,43.53
2022-11-10T05:39:43.088Z,38.77
2022-11-10T05:42:11.340Z,41.13
2022-11-10T05:44:45.377Z,37.57
2022-11-10T05:47:23.706Z,39.20
2022-11-10T05:50:19.472Z,39.17
2022-11-10T05:52:50.925Z,39.97
2022-11-10T05:55:29.653Z,38.23
2022-11-10T05:58:00.220Z,37.83
2022-11-10T06:00:30.557Z,41.20
2022-11-10T06:03:00.880Z,34.57
2022-11-10T06:05:39.228Z,38.37
2022-11-10T06:08:11.432Z,35.23
2022-11-10T06:10:40.585Z,36.53
2022-11-10T06:13:08.885Z,35.77
2022-11-10T06:15:40.287Z,34.30
2022-11-10T06:18:08.504Z,38.77
2022-11-10T06:20:40.012Z,35.57
2022-11-10T06:23:32.520Z,37.40
2022-11-10T06:26:00.860Z,36.50
2022-11-10T06:28:41.800Z,31.43
2022-11-10T06:31:10.004Z,38.73
2022-11-10T06:33:38.248Z,33.57
2022-11-10T06:36:06.929Z,35.30
2022-11-10T06:38:45.885Z,33.93
2022-11-10T06:41:14.125Z,40.63
2022-11-10T06:43:45.391Z,35.07
2022-11-10T06:46:13.615Z,32.50
2022-11-10T06:49:07.332Z,33.77
2022-11-10T06:51:44.700Z,38.10
2022-11-10T06:54:17.041Z,40.63
2022-11-10T06:56:45.331Z,34.67
2022-11-10T06:59:16.442Z,34.33
2022-11-10T07:01:53.778Z,35.67
2022-11-10T07:04:22.188Z,39.20
2022-11-10T07:06:50.526Z,50.90
2022-11-10T07:09:23.108Z,46.43
2022-11-10T07:12:03.508Z,44.10
2022-11-10T07:14:34.811Z,44.97
2022-11-10T07:17:13.184Z,46.93
2022-11-10T07:19:46.804Z,40.60
2022-11-10T07:22:15.044Z,41.57
2022-11-10T07:24:53.498Z,50.90
2022-11-10T07:27:23.172Z,42.60
2022-11-10T07:29:51.521Z,50.60
2022-11-10T07:32:29.963Z,48.23
2022-11-10T07:34:58.297Z,53.60
2022-11-10T07:37:28.871Z,60.53
2022-11-10T07:39:58.580Z,47.10
2022-11-10T07:42:26.855Z,51.67
2022-11-10T07:44:55.028Z,50.70
2022-11-10T07:47:23.253Z,55.87
2022-11-10T07:49:51.496Z,54.50
2022-11-10T07:52:19.707Z,43.80
2022-11-10T07:54:47.943Z,52.10
2022-11-10T07:57:17.540Z,48.73
2022-11-10T07:59:45.716Z,45.67
2022-11-10T08:02:14.051Z,51.13
2022-11-10T08:04:42.227Z,52.13
2022-11-10T08:07:10.611Z,45.23
2022-11-10T08:09:38.975Z,43.63
2022-11-10T08:12:07.418Z,40.53
2022-11-10T08:14:37.304Z,45.40
2022-11-10T08:17:05.567Z,50.27
2022-11-10T08:19:33.787Z,52.97
2022-11-10T08:22:01.990Z,55.43
2022-11-10T08:24:30.217Z,56.80
2022-11-10T08:26:58.466Z,54.10
2022-11-10T08:29:26.701Z,52.90
2022-11-10T08:31:56.292Z,59.43
2022-11-10T08:34:24.562Z,51.13
2022-11-10T08:36:53.317Z,52.43
2022-11-10T08:39:38.140Z,51.37
2022-11-10T08:42:07.486Z,53.27
2022-11-10T08:44:35.720Z,50.80
2022-11-10T08:47:05.417Z,43.67
2022-11-10T08:49:33.680Z,54.27
2022-11-10T08:52:01.844Z,53.10
2022-11-10T08:54:30.275Z,48.27
2022-11-10T08:56:58.471Z,47.67
2022-11-10T08:59:27.051Z,46.37
2022-11-10T09:01:55.302Z,46.30
2022-11-10T09:04:25.046Z,39.77
2022-11-10T09:06:53.300Z,37.93
2022-11-10T09:09:21.549Z,36.63
2022-11-10T09:11:49.782Z,33.97
2022-11-10T09:14:18.080Z,32.23
2022-11-10T09:16:46.584Z,37.90
2022-11-10T09:19:19.620Z,33.17
2022-11-10T09:21:49.728Z,34.00
2022-11-10T09:24:18.087Z,34.17
2022-11-10T09:26:47.698Z,34.50
2022-11-10T09:29:16.081Z,30.77
2022-11-10T09:31:45.317Z,31.23
2022-11-10T09:34:13.783Z,26.03
2022-11-10T09:36:42.041Z,25.47
2022-11-10T09:39:11.672Z,26.53
2022-11-10T09:41:42.019Z,27.90
2022-11-10T09:44:17.524Z,25.03
2022-11-10T09:46:48.996Z,25.03
2022-11-10T09:49:31.102Z,24.13
2022-11-10T09:52:00.914Z,24.80
2022-11-10T09:54:38.304Z,25.83
2022-11-10T09:57:08.865Z,27.20
2022-11-10T09:59:38.116Z,25.17
2022-11-10T10:02:13.443Z,26.40
2022-11-10T10:05:03.629Z,24.40
2022-11-10T10:07:38.963Z,25.57
2022-11-10T10:10:17.602Z,27.63
2022-11-10T10:13:09.407Z,26.00
2022-11-10T10:15:46.124Z,24.10
2022-11-10T10:18:24.584Z,23.50
2022-11-10T10:21:12.449Z,25.53
2022-11-10T10:26:42.365Z,23.53
2022-11-10T10:29:14.835Z,21.73
2022-11-10T10:31:45.932Z,23.53
2022-11-10T10:34:16.809Z,24.90
2022-11-10T10:36:45.665Z,27.73
2022-11-10T10:39:50.085Z,27.20
2022-11-10T10:43:08.153Z,27.10
2022-11-10T10:46:10.662Z,25.70
2022-11-10T10:48:38.937Z,24.63
2022-11-10T10:51:07.439Z,24.03
2022-11-10T10:53:47.415Z,24.77
2022-11-10T10:56:20.286Z,31.80
2022-11-10T10:59:04.066Z,27.57
2022-11-10T11:01:35.512Z,23.57
2022-11-10T11:04:28.954Z,24.00
2022-11-10T11:06:59.211Z,24.83
2022-11-10T11:09:30.151Z,26.73
2022-11-10T11:12:04.473Z,27.70
2022-11-10T11:14:33.688Z,29.87
2022-11-10T11:17:05.071Z,27.17
2022-11-10T11:19:35.612Z,26.03
2022-11-10T11:22:29.977Z,28.23
2022-11-10T11:25:07.065Z,27.70
2022-11-10T11:27:46.408Z,26.00
2022-11-10T11:30:17.534Z,26.57
2022-11-10T11:33:14.947Z,26.53
2022-11-10T11:35:51.059Z,28.10
2022-11-10T11:38:28.595Z,24.77
2022-11-10T11:41:10.539Z,24.87
2022-11-10T11:43:59.740Z,22.60
2022-11-10T11:46:53.940Z,26.60
2022-11-10T11:49:37.452Z,24.13
2022-11-10T11:52:16.640Z,27.67
2022-11-10T11:54:59.854Z,25.37
2022-11-10T11:57:40.060Z,24.97
2022-11-10T12:00:13.384Z,22.50
2022-11-10T12:03:12.136Z,27.10
2022-11-10T12:05:53.763Z,25.13
2022-11-10T12:08:32.798Z,27.57
2022-11-10T12:11:10.724Z,26.23
2022-11-10T12:13:44.588Z,25.97
2022-11-10T12:16:21.641Z,24.43
2022-11-10T12:18:59.949Z,27.43
2022-11-10T12:21:37.355Z,30.33
2022-11-10T12:24:32.883Z,27.20
2022-11-10T12:27:28.336Z,30.03
2022-11-10T12:30:02.404Z,26.13
2022-11-10T12:32:37.059Z,26.43
2022-11-10T12:35:14.170Z,24.53
2022-11-10T12:37:48.376Z,23.63
2022-11-10T12:40:18.384Z,24.80
2022-11-10T12:42:52.356Z,23.13
2022-11-10T12:45:24.380Z,24.90
2022-11-10T12:47:54.020Z,24.93
2022-11-10T12:50:43.450Z,27.30
2022-11-10T12:53:23.019Z,27.67
2022-11-10T12:55:57.296Z,24.07
2022-11-10T12:58:26.814Z,30.67
2022-11-10T13:01:01.718Z,25.93
2022-11-10T13:03:32.442Z,31.43
2022-11-10T13:06:05.597Z,29.37
2022-11-10T13:08:39.229Z,24.90
2022-11-10T13:11:25.546Z,27.50
2022-11-10T13:13:59.685Z,23.73
2022-11-10T13:16:49.533Z,26.20
2022-11-10T13:19:54.478Z,27.80
2022-11-10T13:22:36.869Z,36.83
2022-11-10T13:25:45.370Z,27.53
2022-11-10T13:28:14.998Z,28.27
2022-11-10T13:30:46.092Z,28.23
2022-11-10T13:34:06.183Z,27.97
2022-11-10T13:36:39.225Z,27.23
2022-11-10T13:39:26.144Z,28.10
2022-11-10T13:42:04.798Z,27.77
2022-11-10T13:44:37.687Z,27.00
2022-11-10T13:47:39.078Z,29.63
2022-11-10T13:50:36.865Z,25.53
2022-11-10T13:53:29.092Z,37.73
2022-11-10T13:56:08.511Z,27.77
2022-11-10T13:58:40.310Z,26.57
2022-11-10T14:01:31.229Z,27.50
2022-11-10T14:04:04.291Z,30.00
2022-11-10T14:06:43.398Z,27.47
2022-11-10T14:09:26.969Z,27.17
2022-11-10T14:12:23.383Z,29.67
2022-11-10T14:14:57.495Z,34.90
2022-11-10T14:17:29.839Z,27.93
2022-11-10T14:19:58.529Z,33.33
2022-11-10T14:22:32.281Z,29.90
2022-11-10T14:25:05.907Z,32.20
2022-11-10T14:27:38.054Z,29.03
2022-11-10T14:30:24.641Z,35.70
2022-11-10T14:33:03.959Z,30.73
2022-11-10T14:35:34.437Z,37.17
2022-11-10T14:38:20.179Z,28.33
2022-11-10T14:40:49.598Z,29.40
2022-11-10T14:43:30.528Z,28.23
2022-11-10T14:45:59.754Z,30.33
2022-11-10T14:48:59.694Z,28.57
2022-11-10T14:51:31.105Z,29.97
2022-11-10T14:53:59.702Z,30.27
2022-11-10T14:56:30.686Z,32.87
2022-11-10T14:59:02.288Z,30.93
2022-11-10T15:01:35.816Z,31.13
2022-11-10T15:04:07.094Z,33.67
2022-11-10T15:06:36.082Z,31.97
2022-11-10T15:09:13.865Z,39.17
2022-11-10T15:11:49.786Z,34.37
2022-11-10T15:14:48.552Z,34.93
2022-11-10T15:17:20.207Z,32.83
2022-11-10T15:19:56.464Z,33.77
2022-11-10T15:22:30.802Z,35.77
2022-11-10T15:25:01.669Z,30.50
2022-11-10T15:27:57.594Z,34.30
2022-11-10T15:30:27.167Z,32.37
2022-11-10T15:33:00.913Z,39.87
2022-11-10T15:35:33.444Z,38.33
2022-11-10T15:38:03.814Z,29.63
2022-11-10T15:40:35.486Z,30.43
2022-11-10T15:43:11.569Z,34.53
2022-11-10T15:45:40.453Z,34.93
2022-11-10T15:48:14.103Z,28.53
2022-11-10T15:50:45.510Z,40.10
2022-11-10T15:53:17.059Z,29.83
2022-11-10T15:55:46.212Z,38.23
2022-11-10T15:58:16.663Z,40.57
2022-11-10T16:00:45.222Z,33.37
2022-11-10T16:03:15.451Z,33.80
2022-11-10T16:05:45.311Z,38.67
2022-11-10T16:08:15.488Z,35.43
2022-11-10T16:10:45.954Z,40.43
2022-11-10T16:13:21.551Z,37.03
2022-11-10T16:15:50.189Z,35.20
2022-11-10T16:18:21.081Z,35.03
2022-11-10T16:20:52.869Z,31.10
2022-11-10T16:23:46.550Z,32.97
2022-11-10T16:26:17.309Z,41.00
2022-11-10T16:28:47.838Z,38.77
2022-11-10T16:31:17.514Z,33.70
2022-11-10T16:33:47.022Z,39.17
2022-11-10T16:36:24.645Z,40.73
2022-11-10T16:38:53.303Z,35.43
2022-11-10T16:41:22.016Z,33.97
2022-11-10T16:43:50.599Z,30.93
2022-11-10T16:46:21.620Z,35.70
2022-11-10T16:48:51.300Z,32.93
2022-11-10T16:51:28.782Z,34.63
2022-11-10T16:54:06.585Z,34.70
2022-11-10T16:56:34.866Z,31.33
2022-11-10T16:59:04.351Z,31.23
2022-11-10T17:01:35.151Z,28.97
2022-11-10T17:04:08.311Z,29.67
2022-11-10T17:06:43.627Z,31.57
2022-11-10T17:09:17.190Z,29.90
2022-11-10T17:11:45.376Z,34.93
2022-11-10T17:14:14.173Z,35.57
2022-11-10T17:16:45.301Z,29.17
2022-11-10T17:19:19.914Z,32.30
2022-11-10T17:21:50.620Z,35.10
2022-11-10T17:24:19.185Z,33.37
2022-11-10T17:26:48.350Z,33.00
2022-11-10T17:29:21.082Z,33.57
2022-11-10T17:31:50.272Z,36.20
2022-11-10T17:34:18.576Z,38.47
2022-11-10T17:36:46.942Z,43.10
2022-11-10T17:39:17.916Z,43.90
2022-11-10T17:41:46.242Z,35.67
2022-11-10T17:44:15.221Z,31.43
2022-11-10T17:46:43.831Z,32.27
2022-11-10T17:49:14.949Z,33.83
2022-11-10T17:51:44.625Z,31.63
2022-11-10T17:54:15.214Z,29.73
2022-11-10T17:56:44.891Z,28.13
2022-11-10T17:59:13.793Z,28.70
2022-11-10T18:02:07.399Z,25.73
2022-11-10T18:04:35.684Z,28.33
2022-11-10T18:07:04.091Z,27.70
2022-11-10T18:09:32.512Z,25.30
2022-11-10T18:12:02.095Z,26.07
2022-11-10T18:14:33.942Z,27.63
2022-11-10T18:17:02.156Z,25.93
2022-11-10T18:19:30.444Z,31.70
2022-11-10T18:21:58.636Z,29.47
2022-11-10T18:24:51.609Z,28.93
2022-11-10T18:27:21.293Z,28.67
2022-11-10T18:30:15.680Z,29.63
2022-11-10T18:32:44.029Z,27.07
2022-11-10T18:35:18.891Z,25.27
2022-11-10T18:38:02.426Z,27.70
2022-11-10T18:40:30.697Z,25.13
2022-11-10T18:43:06.881Z,25.10
2022-11-10T18:45:36.763Z,27.23
2022-11-10T18:48:05.693Z,27.27
2022-11-10T18:50:33.938Z,25.93
2022-11-10T18:53:04.560Z,23.90
2022-11-10T18:55:32.918Z,26.20
2022-11-10T18:58:03.484Z,26.27
2022-11-10T19:00:31.668Z,21.97
2022-11-10T19:03:00.001Z,23.30
2022-11-10T19:05:29.319Z,27.67
2022-11-10T19:07:57.616Z,27.17
2022-11-10T19:10:25.874Z,25.13
2022-11-10T19:12:54.170Z,23.20
2022-11-10T19:15:23.877Z,22.37
2022-11-10T19:17:52.075Z,22.20
2022-11-10T19:20:20.445Z,23.00
2022-11-10T19:22:48.726Z,24.27
2022-11-10T19:25:17.023Z,30.13
2022-11-10T19:27:45.295Z,22.37
2022-11-10T19:30:14.602Z,27.37
2022-11-10T19:32:44.326Z,20.20
2022-11-10T19:35:13.520Z,21.47
2022-11-10T19:37:41.872Z,23.80
2022-11-10T19:40:11.388Z,21.27
2022-11-10T19:42:39.735Z,22.50
2022-11-10T19:45:32.761Z,21.70
2022-11-10T19:48:02.420Z,23.87
2022-11-10T19:50:30.688Z,24.13
2022-11-10T19:52:58.970Z,24.33
2022-11-10T19:55:27.145Z,24.40
2022-11-10T19:57:55.488Z,21.20
2022-11-10T20:00:23.799Z,26.60
2022-11-10T20:02:52.107Z,26.53
2022-11-10T20:05:22.217Z,32.93
2022-11-10T20:08:40.840Z,31.23
2022-11-10T20:11:10.953Z,30.63
2022-11-10T20:13:39.328Z,27.93
2022-11-10T20:16:09.159Z,26.20
2022-11-10T20:19:02.892Z,24.37
2022-11-10T20:21:32.507Z,24.70
2022-11-10T20:24:00.813Z,25.50
2022-11-10T20:26:29.000Z,29.23
2022-11-10T20:28:57.336Z,29.17
2022-11-10T20:31:26.995Z,27.80
2022-11-10T20:33:56.716Z,29.40
2022-11-10T20:36:26.982Z,27.57
2022-11-10T20:38:58.171Z,32.43
2022-11-10T20:41:28.914Z,32.13
2022-11-10T20:43:57.256Z,27.73
2022-11-10T20:46:54.064Z,25.80
2022-11-10T20:49:13.957Z,27.47
2022-11-10T20:51:43.506Z,28.20
2022-11-10T20:54:15.063Z,28.83
2022-11-10T20:56:43.298Z,31.43
2022-11-10T20:59:12.068Z,33.27
2022-11-10T21:01:40.490Z,32.07
2022-11-10T21:04:08.741Z,26.50
2022-11-10T21:06:37.062Z,34.07
2022-11-10T21:09:06.809Z,51.30
2022-11-10T21:11:54.216Z,61.47
2022-11-10T21:14:22.936Z,49.33
2022-11-10T21:16:51.250Z,36.70
2022-11-10T21:19:19.424Z,34.17
2022-11-10T21:21:47.765Z,35.87
2022-11-10T21:24:15.992Z,34.47
2022-11-10T21:26:45.606Z,32.10
2022-11-10T21:30:05.483Z,36.73
2022-11-10T21:32:35.210Z,36.47
2022-11-10T21:35:03.439Z,35.23
2022-11-10T21:37:31.674Z,30.40
2022-11-10T21:39:59.905Z,30.03
2022-11-10T21:42:35.183Z,30.27
2022-11-10T21:45:03.748Z,31.97
2022-11-10T21:47:32.101Z,29.43
2022-11-10T21:50:00.439Z,28.83
2022-11-10T21:52:33.057Z,29.70
2022-11-10T21:55:01.253Z,28.43
2022-11-10T21:57:30.903Z,28.13
2022-11-10T21:59:59.203Z,30.67
2022-11-10T22:02:28.543Z,27.63
2022-11-10T22:04:56.833Z,29.63
2022-11-10T22:07:25.405Z,27.17
2022-11-10T22:10:11.943Z,27.10
2022-11-10T22:12:59.708Z,42.33
2022-11-10T22:15:46.171Z,48.07
2022-11-10T22:18:33.672Z,49.00
2022-11-10T22:21:20.336Z,42.03
2022-11-10T22:24:05.963Z,38.67
2022-11-10T22:26:34.390Z,33.00
2022-11-10T22:29:04.075Z,35.00
2022-11-10T22:31:34.690Z,36.97
2022-11-10T22:34:03.182Z,39.13
2022-11-10T22:36:31.686Z,37.13
2022-11-10T22:39:03.381Z,31.37
2022-11-10T22:42:31.629Z,33.33
2022-11-10T22:45:01.313Z,29.70
2022-11-10T22:47:49.546Z,27.87
2022-11-10T22:50:17.997Z,28.27
2022-11-10T22:52:46.237Z,32.90
2022-11-10T22:55:14.605Z,31.50
2022-11-10T22:57:42.853Z,32.53
2022-11-10T23:00:14.384Z,26.77
2022-11-10T23:02:42.598Z,28.53
2022-11-10T23:05:11.058Z,26.80
2022-11-10T23:07:39.977Z,32.30
2022-11-10T23:10:09.463Z,28.30
2022-11-10T23:12:37.749Z,28.53
2022-11-10T23:15:06.321Z,33.40
2022-11-10T23:17:35.934Z,29.10
2022-11-10T23:20:04.396Z,27.03
2022-11-10T23:22:32.794Z,28.63
2022-11-10T23:25:00.986Z,28.73
2022-11-10T23:27:29.256Z,26.90
2022-11-10T23:29:57.489Z,27.73
2022-11-10T23:32:25.714Z,26.20
2022-11-10T23:34:55.282Z,27.93
2022-11-10T23:37:23.523Z,28.17
2022-11-10T23:39:51.790Z,24.10
2022-11-10T23:42:20.068Z,28.83
2022-11-10T23:44:48.244Z,27.23
2022-11-10T23:47:16.536Z,28.13
2022-11-10T23:49:44.724Z,28.47
2022-11-10T23:52:14.371Z,30.23
2022-11-10T23:54:42.649Z,31.60
2022-11-10T23:57:10.894Z,35.00
2022-11-10T23:59:39.241Z,33.17
